createdAt,value
2018-10-21T00:00:52.872Z,23.60
2018-10-21T00:03:23.262Z,23.73
2018-10-21T00:05:53.677Z,25.20
2018-10-21T00:08:24.086Z,25.80
2018-10-21T00:10:55.177Z,21.50
2018-10-21T00:13:30.083Z,25.83
2018-10-21T00:16:00.477Z,24.60
2018-10-21T00:18:31.653Z,22.27
2018-10-21T00:21:02.043Z,23.63
2018-10-21T00:23:38.526Z,23.47
2018-10-21T00:26:09.705Z,26.17
2018-10-21T00:28:42.161Z,25.07
2018-10-21T00:31:12.490Z,24.27
2018-10-21T00:33:43.929Z,25.40
2018-10-21T00:36:15.101Z,25.73
2018-10-21T00:38:45.425Z,26.57
2018-10-21T00:41:16.857Z,25.00
2018-10-21T00:43:47.260Z,27.23
2018-10-21T00:46:18.430Z,22.83
2018-10-21T00:48:48.853Z,24.87
2018-10-21T00:51:19.234Z,25.23
2018-10-21T00:53:49.910Z,25.03
2018-10-21T00:56:20.327Z,23.07
2018-10-21T00:58:51.487Z,23.37
2018-10-21T01:01:21.881Z,25.67
2018-10-21T01:03:52.283Z,23.50
2018-10-21T01:06:22.683Z,23.43
2018-10-21T01:08:54.132Z,26.37
2018-10-21T01:11:25.534Z,26.50
2018-10-21T01:16:37.625Z,26.03
2018-10-21T01:19:27.388Z,25.57
2018-10-21T01:21:57.782Z,26.10
2018-10-21T01:24:28.947Z,24.17
2018-10-21T01:26:59.284Z,23.70
2018-10-21T01:29:29.682Z,26.83
2018-10-21T01:32:00.852Z,25.67
2018-10-21T01:34:31.186Z,24.47
2018-10-21T01:37:05.700Z,22.77
2018-10-21T01:39:43.154Z,24.87
2018-10-21T01:42:14.320Z,23.57
2018-10-21T01:44:45.474Z,25.13
2018-10-21T01:47:15.867Z,24.40
2018-10-21T01:49:47.047Z,24.47
2018-10-21T01:52:17.613Z,23.37
2018-10-21T01:54:48.020Z,22.47
2018-10-21T01:57:22.516Z,25.50
2018-10-21T01:59:52.907Z,26.07
2018-10-21T02:02:23.292Z,24.00
2018-10-21T02:04:53.624Z,26.57
2018-10-21T02:07:43.391Z,25.80
2018-10-21T02:10:14.813Z,28.27
2018-10-21T02:12:45.193Z,26.40
2018-10-21T02:15:15.706Z,24.27
2018-10-21T02:17:46.011Z,25.87
2018-10-21T02:20:17.083Z,27.37
2018-10-21T02:22:47.467Z,22.90
2018-10-21T02:25:17.880Z,24.27
2018-10-21T02:27:48.278Z,24.23
2018-10-21T02:30:18.664Z,25.37
2018-10-21T02:32:49.291Z,26.93
2018-10-21T02:35:19.660Z,31.43
2018-10-21T02:37:50.057Z,26.87
2018-10-21T02:40:20.459Z,24.40
2018-10-21T02:42:51.807Z,24.80
2018-10-21T02:45:22.188Z,27.20
2018-10-21T02:47:52.605Z,23.23
2018-10-21T02:50:44.417Z,24.00
2018-10-21T02:53:16.856Z,29.50
2018-10-21T02:55:49.045Z,23.30
2018-10-21T02:58:19.445Z,24.90
2018-10-21T03:00:49.787Z,27.13
2018-10-21T03:03:20.179Z,24.20
2018-10-21T03:05:50.563Z,26.20
2018-10-21T03:08:20.971Z,23.13
2018-10-21T03:10:51.372Z,23.63
2018-10-21T03:13:21.773Z,24.17
2018-10-21T03:15:52.185Z,21.60
2018-10-21T03:18:29.897Z,25.87
2018-10-21T03:21:01.094Z,26.20
2018-10-21T03:23:31.403Z,25.57
2018-10-21T03:26:02.532Z,25.23
2018-10-21T03:28:32.948Z,23.60
2018-10-21T03:31:03.271Z,26.57
2018-10-21T03:33:33.781Z,23.57
2018-10-21T03:36:22.413Z,24.00
2018-10-21T03:38:52.816Z,26.33
2018-10-21T03:41:23.985Z,26.07
2018-10-21T03:43:54.399Z,26.00
2018-10-21T03:46:25.809Z,28.10
2018-10-21T03:48:56.208Z,24.03
2018-10-21T03:51:33.928Z,23.10
2018-10-21T03:54:04.312Z,24.53
2018-10-21T03:56:34.701Z,23.53
2018-10-21T03:59:05.101Z,22.87
2018-10-21T04:01:35.507Z,28.53
2018-10-21T04:04:10.025Z,25.57
2018-10-21T04:06:40.393Z,21.93
2018-10-21T04:09:10.803Z,25.87
2018-10-21T04:11:41.187Z,22.83
2018-10-21T04:14:11.816Z,21.17
2018-10-21T04:16:43.235Z,23.03
2018-10-21T04:19:13.623Z,23.67
2018-10-21T04:21:44.028Z,24.60
2018-10-21T04:24:14.427Z,23.77
2018-10-21T04:26:45.592Z,24.27
2018-10-21T04:29:16.004Z,23.70
2018-10-21T04:31:46.397Z,29.23
2018-10-21T04:34:16.942Z,24.50
2018-10-21T04:36:47.181Z,25.63
2018-10-21T04:39:59.449Z,26.43
2018-10-21T04:45:15.652Z,26.53
2018-10-21T04:48:06.180Z,26.43
2018-10-21T04:50:36.570Z,29.00
2018-10-21T04:53:06.967Z,24.43
2018-10-21T04:55:37.379Z,29.03
2018-10-21T04:58:08.474Z,26.10
2018-10-21T05:00:40.982Z,26.60
2018-10-21T05:03:12.018Z,22.97
2018-10-21T05:05:42.337Z,25.60
2018-10-21T05:08:15.783Z,25.40
2018-10-21T05:10:46.183Z,27.00
2018-10-21T05:13:16.511Z,22.93
2018-10-21T05:15:47.665Z,26.60
2018-10-21T05:18:19.857Z,23.47
2018-10-21T05:20:50.249Z,30.17
2018-10-21T05:23:20.637Z,24.50
2018-10-21T05:25:50.983Z,25.90
2018-10-21T05:28:21.384Z,24.83
2018-10-21T05:30:54.205Z,24.80
2018-10-21T05:33:24.533Z,24.90
2018-10-21T05:35:54.932Z,23.20
2018-10-21T05:38:26.084Z,23.90
2018-10-21T05:40:56.498Z,26.70
2018-10-21T05:43:45.997Z,22.73
2018-10-21T05:46:16.506Z,25.60
2018-10-21T05:48:46.784Z,23.80
2018-10-21T05:51:17.183Z,25.27
2018-10-21T05:53:47.962Z,25.67
2018-10-21T05:56:18.362Z,24.40
2018-10-21T05:58:49.521Z,22.13
2018-10-21T06:01:19.917Z,28.93
2018-10-21T06:03:50.315Z,23.93
2018-10-21T06:06:40.843Z,25.77
2018-10-21T06:09:11.243Z,24.80
2018-10-21T06:11:45.752Z,25.80
2018-10-21T06:14:22.213Z,24.97
2018-10-21T06:16:54.670Z,26.40
2018-10-21T06:19:25.061Z,28.93
2018-10-21T06:21:56.507Z,24.00
2018-10-21T06:24:26.889Z,25.40
2018-10-21T06:26:57.268Z,25.87
2018-10-21T06:29:27.839Z,25.50
2018-10-21T06:31:58.173Z,25.20
2018-10-21T06:34:30.592Z,25.43
2018-10-21T06:37:02.001Z,24.67
2018-10-21T06:39:34.458Z,23.60
2018-10-21T06:42:05.619Z,27.87
2018-10-21T06:44:37.051Z,25.10
2018-10-21T06:47:07.451Z,26.83
2018-10-21T06:49:38.625Z,23.37
2018-10-21T06:52:09.016Z,27.17
2018-10-21T06:54:39.412Z,26.83
2018-10-21T06:57:12.774Z,23.97
2018-10-21T06:59:42.864Z,25.87
2018-10-21T07:02:13.271Z,26.77
2018-10-21T07:04:43.783Z,25.90
2018-10-21T07:07:16.039Z,26.57
2018-10-21T07:09:50.545Z,23.33
2018-10-21T07:12:20.948Z,28.60
2018-10-21T07:14:52.103Z,28.57
2018-10-21T07:17:23.278Z,27.83
2018-10-21T07:19:59.732Z,24.93
2018-10-21T07:22:30.124Z,25.50
2018-10-21T07:25:00.444Z,25.83
2018-10-21T07:27:30.833Z,29.40
2018-10-21T07:30:01.250Z,25.53
2018-10-21T07:32:31.643Z,22.63
2018-10-21T07:35:01.964Z,24.40
2018-10-21T07:37:33.134Z,26.63
2018-10-21T07:40:04.282Z,24.67
2018-10-21T07:42:34.636Z,22.57
2018-10-21T07:45:04.977Z,22.87
2018-10-21T07:47:35.355Z,25.90
2018-10-21T07:50:05.741Z,24.77
2018-10-21T07:52:36.160Z,29.30
2018-10-21T07:55:08.552Z,28.93
2018-10-21T07:57:38.907Z,29.00
2018-10-21T08:00:09.303Z,28.57
2018-10-21T08:02:40.467Z,27.60
2018-10-21T08:05:11.616Z,29.33
2018-10-21T08:08:02.331Z,29.47
2018-10-21T08:10:32.717Z,31.83
2018-10-21T08:13:03.109Z,30.37
2018-10-21T08:15:39.592Z,29.30
2018-10-21T08:18:09.909Z,30.50
2018-10-21T08:20:40.311Z,30.53
2018-10-21T08:23:12.752Z,28.67
2018-10-21T08:25:44.118Z,33.03
2018-10-21T08:28:14.561Z,31.80
2018-10-21T08:30:44.930Z,30.77
2018-10-21T08:33:15.317Z,29.17
2018-10-21T08:35:45.749Z,31.87
2018-10-21T08:38:16.059Z,32.80
2018-10-21T08:40:49.524Z,31.27
2018-10-21T08:43:20.688Z,24.97
2018-10-21T08:45:51.122Z,28.97
2018-10-21T08:48:21.531Z,29.97
2018-10-21T08:50:52.701Z,32.80
2018-10-21T08:53:23.045Z,31.40
2018-10-21T08:56:12.805Z,32.47
2018-10-21T08:58:45.754Z,31.13
2018-10-21T09:01:16.238Z,30.87
2018-10-21T09:03:48.504Z,29.30
2018-10-21T09:06:18.910Z,30.73
2018-10-21T09:08:49.316Z,28.57
2018-10-21T09:14:01.434Z,34.17
2018-10-21T09:16:33.588Z,30.83
2018-10-21T09:19:03.938Z,31.87
2018-10-21T09:21:44.307Z,29.30
2018-10-21T09:24:15.393Z,29.63
2018-10-21T09:26:45.787Z,28.53
2018-10-21T09:29:16.220Z,32.67
2018-10-21T09:31:46.618Z,30.17
2018-10-21T09:34:17.789Z,29.80
2018-10-21T09:37:07.542Z,27.10
2018-10-21T09:39:37.924Z,32.90
2018-10-21T09:42:14.512Z,29.03
2018-10-21T09:44:44.842Z,35.87
2018-10-21T09:47:15.233Z,30.93
2018-10-21T09:49:49.755Z,27.27
2018-10-21T09:52:22.554Z,31.13
2018-10-21T09:55:11.473Z,31.47
2018-10-21T09:57:47.844Z,30.80
2018-10-21T10:00:18.267Z,27.47
2018-10-21T10:02:57.418Z,26.73
2018-10-21T10:05:27.838Z,29.77
2018-10-21T10:07:58.240Z,26.70
2018-10-21T10:10:29.382Z,29.57
2018-10-21T10:13:11.214Z,29.77
2018-10-21T10:15:41.544Z,28.90
2018-10-21T10:18:19.498Z,31.30
2018-10-21T10:20:53.243Z,29.20
2018-10-21T10:23:26.236Z,25.97
2018-10-21T10:25:57.546Z,29.17
2018-10-21T10:28:29.728Z,31.63
2018-10-21T10:31:00.139Z,26.53
2018-10-21T10:33:37.135Z,26.90
2018-10-21T10:36:08.423Z,27.93
2018-10-21T10:39:00.725Z,26.97
2018-10-21T10:41:32.176Z,26.67
2018-10-21T10:44:02.564Z,40.03
2018-10-21T10:46:32.969Z,29.53
2018-10-21T10:49:08.532Z,31.50
2018-10-21T10:51:40.938Z,28.43
2018-10-21T10:54:12.112Z,28.20
2018-10-21T10:56:42.525Z,32.77
2018-10-21T10:59:12.914Z,26.60
2018-10-21T11:01:43.302Z,28.30
2018-10-21T11:04:16.664Z,28.50
2018-10-21T11:06:53.334Z,28.10
2018-10-21T11:09:27.540Z,25.37
2018-10-21T11:11:58.707Z,23.63
2018-10-21T11:14:31.951Z,25.93
2018-10-21T11:17:02.374Z,25.17
2018-10-21T11:19:39.931Z,25.90
2018-10-21T11:22:10.405Z,27.13
2018-10-21T11:24:40.713Z,27.63
2018-10-21T11:27:13.089Z,24.67
2018-10-21T11:30:02.877Z,23.27
2018-10-21T11:32:33.281Z,27.90
2018-10-21T11:35:06.738Z,25.20
2018-10-21T11:37:39.854Z,29.00
2018-10-21T11:40:14.354Z,22.33
2018-10-21T11:42:44.682Z,22.57
2018-10-21T11:45:20.256Z,22.67
2018-10-21T11:47:55.805Z,23.53
2018-10-21T11:50:32.083Z,24.10
2018-10-21T11:53:09.440Z,22.50
2018-10-21T11:55:42.786Z,25.73
2018-10-21T11:58:15.726Z,22.33
2018-10-21T12:00:46.029Z,24.17
2018-10-21T12:03:16.448Z,23.33
2018-10-21T12:05:46.930Z,24.00
2018-10-21T12:08:29.399Z,24.50
2018-10-21T12:11:00.567Z,23.93
2018-10-21T12:13:36.211Z,31.27
2018-10-21T12:16:06.698Z,26.50
2018-10-21T12:18:37.784Z,30.00
2018-10-21T12:21:08.959Z,27.33
2018-10-21T12:23:46.688Z,25.80
2018-10-21T12:26:17.028Z,25.10
2018-10-21T12:28:47.426Z,28.13
2018-10-21T12:31:20.468Z,27.77
2018-10-21T12:33:51.065Z,29.30
2018-10-21T12:39:03.455Z,25.80
2018-10-21T12:41:38.657Z,28.50
2018-10-21T12:44:09.063Z,31.17
2018-10-21T12:46:39.459Z,31.67
2018-10-21T12:49:09.862Z,27.43
2018-10-21T12:51:42.879Z,28.80
2018-10-21T12:54:18.514Z,29.20
2018-10-21T12:56:50.964Z,30.13
2018-10-21T12:59:21.346Z,27.57
2018-10-21T13:01:51.731Z,30.60
2018-10-21T13:04:24.185Z,29.90
2018-10-21T13:06:57.047Z,27.87
2018-10-21T13:09:27.703Z,30.27
2018-10-21T13:11:58.124Z,28.87
2018-10-21T13:14:32.422Z,28.40
2018-10-21T13:17:10.962Z,30.87
2018-10-21T13:19:42.151Z,25.00
2018-10-21T13:22:15.371Z,26.17
2018-10-21T13:24:48.330Z,24.63
2018-10-21T13:27:40.875Z,30.20
2018-10-21T13:30:17.426Z,28.13
2018-10-21T13:32:50.557Z,26.63
2018-10-21T13:35:20.951Z,28.23
2018-10-21T13:37:58.688Z,29.23
2018-10-21T13:40:29.154Z,29.50
2018-10-21T13:43:24.808Z,29.80
2018-10-21T13:45:58.400Z,23.20
2018-10-21T13:48:31.465Z,25.23
2018-10-21T13:51:01.873Z,23.37
2018-10-21T13:53:33.048Z,20.67
2018-10-21T13:56:12.676Z,21.53
2018-10-21T13:58:43.084Z,21.40
2018-10-21T14:01:19.909Z,20.23
2018-10-21T14:03:53.039Z,21.40
2018-10-21T14:06:23.429Z,19.33
2018-10-21T14:09:01.764Z,20.47
2018-10-21T14:11:34.889Z,24.17
2018-10-21T14:14:06.051Z,24.17
2018-10-21T14:16:36.626Z,20.83
2018-10-21T14:19:07.554Z,21.83
2018-10-21T14:22:00.253Z,23.47
2018-10-21T14:24:33.960Z,18.33
2018-10-21T14:27:04.318Z,18.90
2018-10-21T14:29:42.237Z,20.83
2018-10-21T14:32:30.966Z,18.90
2018-10-21T14:35:04.036Z,20.47
2018-10-21T14:37:35.251Z,18.07
2018-10-21T14:40:05.609Z,18.17
2018-10-21T14:42:36.044Z,19.27
2018-10-21T14:45:09.786Z,21.07
2018-10-21T14:47:43.872Z,19.27
2018-10-21T14:50:19.837Z,19.90
2018-10-21T14:52:50.302Z,22.47
2018-10-21T14:55:20.671Z,21.43
2018-10-21T14:57:52.863Z,20.60
2018-10-21T15:00:28.425Z,19.30
2018-10-21T15:02:58.788Z,18.17
2018-10-21T15:05:37.792Z,18.57
2018-10-21T15:08:08.207Z,19.50
2018-10-21T15:10:38.518Z,18.87
2018-10-21T15:15:57.164Z,15.13
2018-10-21T15:18:28.313Z,17.43
2018-10-21T15:20:58.709Z,16.47
2018-10-21T15:23:29.112Z,15.17
2018-10-21T15:26:00.501Z,13.57
2018-10-21T15:28:33.454Z,15.00
2018-10-21T15:31:07.690Z,13.20
2018-10-21T15:33:38.088Z,14.60
2018-10-21T15:36:09.493Z,16.00
2018-10-21T15:38:39.903Z,15.20
2018-10-21T15:41:13.132Z,15.63
2018-10-21T15:43:43.519Z,15.30
2018-10-21T15:46:17.536Z,14.90
2018-10-21T15:48:50.383Z,13.83
2018-10-21T15:51:40.873Z,15.47
2018-10-21T15:54:11.232Z,14.67
2018-10-21T15:56:41.625Z,14.77
2018-10-21T15:59:11.960Z,16.10
2018-10-21T16:01:42.358Z,13.30
2018-10-21T16:04:15.566Z,11.40
2018-10-21T16:06:45.897Z,13.73
2018-10-21T16:09:17.309Z,13.07
2018-10-21T16:11:47.691Z,13.53
2018-10-21T16:14:18.156Z,11.83
2018-10-21T16:16:48.501Z,13.67
2018-10-21T16:19:21.358Z,15.20
2018-10-21T16:21:51.693Z,12.07
2018-10-21T16:24:22.089Z,14.50
2018-10-21T16:26:52.421Z,13.63
2018-10-21T16:29:23.856Z,13.67
2018-10-21T16:31:54.265Z,15.60
2018-10-21T16:34:35.659Z,13.80
2018-10-21T16:37:08.850Z,15.07
2018-10-21T16:39:39.234Z,13.17
2018-10-21T16:42:09.831Z,13.20
2018-10-21T16:44:40.222Z,14.47
2018-10-21T16:47:31.723Z,17.83
2018-10-21T16:50:07.488Z,22.43
2018-10-21T16:52:42.005Z,21.07
2018-10-21T16:55:14.442Z,17.57
2018-10-21T16:57:45.608Z,18.70
2018-10-21T17:00:16.256Z,16.37
2018-10-21T17:02:47.151Z,16.60
2018-10-21T17:05:18.417Z,17.93
2018-10-21T17:07:51.185Z,17.70
2018-10-21T17:10:22.738Z,17.07
2018-10-21T17:12:52.739Z,17.77
2018-10-21T17:15:26.125Z,16.83
2018-10-21T17:17:56.530Z,15.80
2018-10-21T17:20:45.275Z,16.37
2018-10-21T17:23:18.299Z,16.60
2018-10-21T17:25:48.700Z,14.43
2018-10-21T17:28:23.906Z,14.53
2018-10-21T17:30:56.925Z,16.93
2018-10-21T17:33:29.771Z,17.20
2018-10-21T17:36:00.925Z,14.37
2018-10-21T17:38:31.324Z,14.97
2018-10-21T17:41:01.724Z,16.20
2018-10-21T17:43:32.128Z,15.13
2018-10-21T17:46:05.600Z,17.03
2018-10-21T17:48:44.502Z,20.73
2018-10-21T17:51:14.898Z,21.40
2018-10-21T17:53:56.137Z,24.93
2018-10-21T17:56:26.527Z,18.80
2018-10-21T17:58:56.912Z,16.83
2018-10-21T18:01:28.347Z,18.97
2018-10-21T18:03:58.822Z,16.30
2018-10-21T18:06:29.911Z,18.37
2018-10-21T18:09:01.090Z,19.87
2018-10-21T18:11:50.592Z,16.53
2018-10-21T18:14:21.010Z,16.73
2018-10-21T18:16:51.339Z,17.13
2018-10-21T18:19:21.728Z,15.37
2018-10-21T18:21:52.127Z,15.80
2018-10-21T18:24:23.287Z,17.30
2018-10-21T18:26:53.687Z,14.30
2018-10-21T18:29:24.272Z,17.87
2018-10-21T18:31:54.587Z,13.87
2018-10-21T18:34:33.419Z,14.23
2018-10-21T18:37:25.627Z,17.20
2018-10-21T18:39:58.723Z,17.20
2018-10-21T18:45:14.503Z,13.47
2018-10-21T18:47:50.130Z,14.40
2018-10-21T18:50:20.530Z,14.37
2018-10-21T18:52:58.248Z,14.73
2018-10-21T18:55:28.651Z,16.70
2018-10-21T18:58:03.064Z,14.53
2018-10-21T19:00:33.419Z,15.57
2018-10-21T19:03:07.227Z,15.20
2018-10-21T19:05:40.235Z,17.00
2018-10-21T19:08:16.572Z,15.20
2018-10-21T19:10:51.082Z,15.77
2018-10-21T19:13:22.545Z,16.27
2018-10-21T19:15:55.682Z,14.83
2018-10-21T19:18:50.997Z,14.07
2018-10-21T19:21:22.162Z,15.43
2018-10-21T19:23:52.559Z,15.83
2018-10-21T19:26:23.648Z,14.47
2018-10-21T19:29:02.048Z,15.67
2018-10-21T19:31:32.449Z,17.63
2018-10-21T19:34:04.643Z,15.30
2018-10-21T19:36:38.296Z,14.43
2018-10-21T19:39:08.686Z,14.40
2018-10-21T19:41:48.759Z,13.33
2018-10-21T19:44:19.156Z,15.93
2018-10-21T19:46:50.252Z,15.37
2018-10-21T19:49:25.743Z,15.70
2018-10-21T19:51:56.139Z,14.33
2018-10-21T19:54:30.481Z,16.67
2018-10-21T19:57:06.368Z,13.73
2018-10-21T19:59:58.949Z,16.50
2018-10-21T20:02:29.538Z,13.67
2018-10-21T20:04:59.736Z,15.53
2018-10-21T20:07:30.159Z,17.27
2018-10-21T20:10:01.378Z,15.17
2018-10-21T20:12:31.713Z,17.30
2018-10-21T20:15:02.891Z,15.90
2018-10-21T20:17:33.991Z,15.10
2018-10-21T20:20:07.109Z,17.93
2018-10-21T20:22:40.932Z,18.60
2018-10-21T20:25:14.111Z,18.97
2018-10-21T20:27:49.329Z,17.20
2018-10-21T20:30:20.485Z,17.50
2018-10-21T20:32:53.467Z,18.17
2018-10-21T20:35:23.743Z,16.37
2018-10-21T20:37:57.277Z,16.73
2018-10-21T20:40:27.600Z,17.10
2018-10-21T20:42:58.026Z,15.33
2018-10-21T20:45:28.423Z,17.53
2018-10-21T20:48:00.931Z,15.43
2018-10-21T20:50:31.279Z,14.73
2018-10-21T20:53:03.724Z,14.20
2018-10-21T20:55:34.110Z,15.47
2018-10-21T20:58:08.674Z,17.43
2018-10-21T21:00:41.653Z,15.93
2018-10-21T21:03:12.053Z,17.77
2018-10-21T21:05:44.496Z,17.47
2018-10-21T21:08:14.972Z,18.57
2018-10-21T21:10:45.295Z,16.57
2018-10-21T21:13:15.713Z,17.93
2018-10-21T21:15:46.102Z,16.47
2018-10-21T21:18:16.617Z,16.57
2018-10-21T21:20:47.081Z,18.17
2018-10-21T21:23:17.284Z,18.97
2018-10-21T21:25:47.611Z,15.47
2018-10-21T21:28:19.033Z,18.37
2018-10-21T21:30:49.438Z,18.00
2018-10-21T21:33:19.841Z,19.17
2018-10-21T21:35:57.562Z,19.90
2018-10-21T21:38:27.944Z,19.90
2018-10-21T21:40:59.754Z,17.90
2018-10-21T21:43:28.762Z,16.37
2018-10-21T21:45:59.188Z,16.40
2018-10-21T21:48:29.554Z,17.00
2018-10-21T21:50:59.892Z,16.37
2018-10-21T21:53:30.203Z,17.33
2018-10-21T21:56:02.592Z,18.67
2018-10-21T21:58:32.997Z,17.30
2018-10-21T22:01:03.325Z,15.97
2018-10-21T22:03:33.644Z,15.83
2018-10-21T22:06:04.083Z,16.60
2018-10-21T22:08:35.217Z,17.57
2018-10-21T22:11:05.625Z,17.13
2018-10-21T22:13:36.030Z,15.37
2018-10-21T22:16:06.450Z,16.50
2018-10-21T22:18:36.742Z,14.27
2018-10-21T22:21:10.209Z,16.13
2018-10-21T22:23:41.380Z,16.50
2018-10-21T22:26:11.767Z,16.63
2018-10-21T22:28:42.166Z,16.40
2018-10-21T22:31:14.546Z,18.87
2018-10-21T22:33:44.954Z,15.33
2018-10-21T22:36:20.479Z,14.90
2018-10-21T22:38:50.856Z,15.63
2018-10-21T22:41:21.260Z,13.23
2018-10-21T22:43:55.695Z,14.30
2018-10-21T22:46:26.110Z,14.83
2018-10-21T22:48:56.494Z,13.27
2018-10-21T22:51:27.672Z,13.90
2018-10-21T22:53:58.086Z,14.00
2018-10-21T22:56:28.455Z,13.93
2018-10-21T22:58:58.867Z,14.73
2018-10-21T23:01:31.295Z,14.37
2018-10-21T23:04:02.485Z,14.27
2018-10-21T23:06:32.867Z,13.47
2018-10-21T23:11:45.094Z,15.53
2018-10-21T23:14:16.350Z,17.90
2018-10-21T23:16:46.672Z,13.97
2018-10-21T23:19:27.991Z,15.43
2018-10-21T23:21:59.470Z,16.53
2018-10-21T23:24:31.849Z,15.60
2018-10-21T23:27:03.024Z,14.30
2018-10-21T23:29:33.431Z,14.23
2018-10-21T23:32:05.610Z,15.93
2018-10-21T23:34:36.793Z,17.67
2018-10-21T23:37:28.342Z,13.53
2018-10-21T23:39:58.799Z,14.33
2018-10-21T23:42:51.312Z,16.33
2018-10-21T23:45:21.653Z,16.77
2018-10-21T23:47:53.092Z,16.43
2018-10-21T23:50:23.480Z,14.73
2018-10-21T23:53:12.980Z,16.50
2018-10-21T23:55:43.389Z,17.63
2018-10-21T23:58:35.983Z,15.03
